Time;durP1;ratioP1;P1;durP2;ratioP2;P2;SDS_P1;SDS_P2;PMS_P1;PMS_P2;Temp;Humidity;BMP_temperature;BMP_pressure;BME280_temperature;BME280_humidity;BME280_pressure;Samples;Min_cycle;Max_cycle;Signal;HPM_P1;HPM_P2
2022/05/12 00:01:51;;;;;;;;;;;;;;;;;;5025058;28;19920;-76
2022/05/12 00:04:16;;;;;;;;;;;;;;;;;;5032416;28;19971;-76
2022/05/12 00:06:42;;;;;;;;;;;;;;;;;;4997597;28;19917;-75
2022/05/12 00:09:07;;;;;;;;;;;;;;;;;;5013826;28;19967;-75
2022/05/12 00:11:33;;;;;;;;;;;;;;;;;;4997512;28;19917;-75
2022/05/12 00:13:58;;;;;;;;;;;;;;;;;;4997562;28;20008;-76
2022/05/12 00:16:23;;;;;;;;;;;;;;;;;;5031586;28;20368;-75
2022/05/12 00:18:49;;;;;;;;;;;;;;;;;;5032366;28;20345;-75
2022/05/12 00:21:14;;;;;;;;;;;;;;;;;;5033725;28;20372;-76
2022/05/12 00:23:39;;;;;;;;;;;;;;;;;;5016110;28;19925;-76
2022/05/12 00:26:05;;;;;;;;;;;;;;;;;;5033744;28;19924;-76
2022/05/12 00:28:30;;;;;;;;;;;;;;;;;;5015822;28;19916;-76
2022/05/12 00:30:57;;;;;;;;;;;;;;;;;;5011549;28;20051;-76
2022/05/12 00:33:25;;;;;;;;;;;;;;;;;;5012844;28;19917;-76
2022/05/12 00:35:51;;;;;;;;;;;;;;;;;;5013974;28;19925;-76
2022/05/12 00:38:17;;;;;;;;;;;;;;;;;;5013599;28;19922;-76
2022/05/12 00:40:44;;;;;;;;;;;;;;;;;;4996262;28;20383;-76
2022/05/12 00:43:29;;;;;;;;;;;;;;;;;;5012433;28;20011;-76
2022/05/12 00:45:55;;;;;;;;;;;;;;;;;;4996017;28;20023;-75
2022/05/12 00:48:20;;;;;;;;;;;;;;;;;;5013829;28;20016;-76
2022/05/12 00:50:46;;;;;;;;;;;;;;;;;;5012628;28;19918;-76
2022/05/12 00:53:12;;;;;;;;;;;;;;;;;;4993593;28;19922;-76
2022/05/12 00:55:39;;;;;;;;;;;;;;;;;;5012328;28;19952;-76
2022/05/12 00:58:07;;;;;;;;;;;;;;;;;;4996368;28;19968;-76
2022/05/12 01:00:32;;;;;;;;;;;;;;;;;;4996097;28;19924;-76
2022/05/12 01:03:00;;;;;;;;;;;;;;;;;;4979654;28;20016;-76
2022/05/12 01:05:26;;;;;;;;;;;;;;;;;;5009370;28;20327;-76
2022/05/12 01:07:55;;;;;;;;;;;;;;;;;;4994086;28;19917;-77
2022/05/12 01:10:21;;;;;;;;;;;;;;;;;;4995196;28;19928;-76
2022/05/12 01:12:48;;;;;;;;;;;;;;;;;;5013061;28;19922;-76
2022/05/12 01:15:14;;;;;;;;;;;;;;;;;;4997920;28;19917;-77
2022/05/12 01:17:39;;;;;;;;;;;;;;;;;;5017051;28;19932;-78
2022/05/12 01:20:05;;;;;;;;;;;;;;;;;;4998310;28;19925;-78
2022/05/12 01:22:30;;;;;;;;;;;;;;;;;;5013955;28;19917;-77
2022/05/12 01:24:56;;;;;;;;;;;;;;;;;;5013467;28;20677;-77
2022/05/12 01:27:22;;;;;;;;;;;;;;;;;;4998037;28;20016;-77
2022/05/12 01:29:52;;;;;;;;;;;;;;;;;;4980378;28;19917;-78
2022/05/12 01:32:18;;;;;;;;;;;;;;;;;;4998442;28;20315;-77
2022/05/12 01:34:43;;;;;;;;;;;;;;;;;;5014566;28;20012;-78
2022/05/12 01:37:09;;;;;;;;;;;;;;;;;;4999049;28;19957;-78
2022/05/12 01:39:35;;;;;;;;;;;;;;;;;;4999958;28;19922;-78
2022/05/12 01:42:01;;;;;;;;;;;;;;;;;;4998937;28;19918;-78
2022/05/12 01:44:27;;;;;;;;;;;;;;;;;;5014590;28;20295;-79
2022/05/12 01:46:52;;;;;;;;;;;;;;;;;;4999742;28;20018;-78
2022/05/12 01:49:18;;;;;;;;;;;;;;;;;;4999723;28;20021;-78
2022/05/12 01:51:44;;;;;;;;;;;;;;;;;;4996992;28;19958;-79
2022/05/12 01:54:10;;;;;;;;;;;;;;;;;;4997116;28;19922;-77
2022/05/12 01:56:35;;;;;;;;;;;;;;;;;;4996607;28;19918;-78
2022/05/12 01:59:00;;;;;;;;;;;;;;;;;;5012826;28;19961;-77
2022/05/12 02:01:26;;;;;;;;;;;;;;;;;;4996031;28;19918;-77
2022/05/12 02:03:51;;;;;;;;;;;;;;;;;;5004674;28;19917;-77
2022/05/12 02:06:16;;;;;;;;;;;;;;;;;;5035619;28;19917;-77
2022/05/12 02:08:42;;;;;;;;;;;;;;;;;;5019227;28;19924;-77
2022/05/12 02:11:07;;;;;;;;;;;;;;;;;;5035280;28;19948;-77
2022/05/12 02:13:33;;;;;;;;;;;;;;;;;;5036167;28;19917;-78
2022/05/12 02:15:58;;;;;;;;;;;;;;;;;;5018836;28;19932;-77
2022/05/12 02:18:24;;;;;;;;;;;;;;;;;;5036158;28;19928;-76
2022/05/12 02:20:50;;;;;;;;;;;;;;;;;;5034028;28;19982;-76
2022/05/12 02:23:15;;;;;;;;;;;;;;;;;;5034890;28;19932;-77
2022/05/12 02:25:41;;;;;;;;;;;;;;;;;;5018236;28;19924;-77
2022/05/12 02:28:06;;;;;;;;;;;;;;;;;;5018121;28;19917;-77
2022/05/12 02:30:32;;;;;;;;;;;;;;;;;;5019104;28;20357;-77
2022/05/12 02:32:57;;;;;;;;;;;;;;;;;;5035788;28;19917;-78
2022/05/12 02:35:23;;;;;;;;;;;;;;;;;;5020205;28;19923;-77
2022/05/12 02:37:49;;;;;;;;;;;;;;;;;;5015785;28;20012;-77
2022/05/12 02:40:15;;;;;;;;;;;;;;;;;;5016953;28;19918;-78
2022/05/12 02:42:41;;;;;;;;;;;;;;;;;;5015594;28;19917;-78
2022/05/12 02:45:07;;;;;;;;;;;;;;;;;;5015829;28;20032;-78
2022/05/12 02:47:32;;;;;;;;;;;;;;;;;;5016722;28;19949;-78
2022/05/12 02:49:59;;;;;;;;;;;;;;;;;;5014959;28;19967;-76
2022/05/12 02:52:24;;;;;;;;;;;;;;;;;;5000556;28;20457;-78
2022/05/12 02:54:51;;;;;;;;;;;;;;;;;;5016401;28;19921;-79
2022/05/12 02:57:17;;;;;;;;;;;;;;;;;;4997733;28;19929;-77
2022/05/12 02:59:42;;;;;;;;;;;;;;;;;;5014063;28;19918;-76
2022/05/12 03:02:07;;;;;;;;;;;;;;;;;;5014456;28;20383;-75
2022/05/12 03:04:33;;;;;;;;;;;;;;;;;;4996914;28;19924;-75
2022/05/12 03:06:58;;;;;;;;;;;;;;;;;;5014360;28;19925;-75
2022/05/12 03:09:24;;;;;;;;;;;;;;;;;;5013334;28;20008;-76
2022/05/12 03:11:49;;;;;;;;;;;;;;;;;;5014621;28;19968;-75
2022/05/12 03:14:14;;;;;;;;;;;;;;;;;;5014460;28;20391;-75
2022/05/12 03:16:40;;;;;;;;;;;;;;;;;;5013266;28;20322;-75
2022/05/12 03:19:05;;;;;;;;;;;;;;;;;;5014529;28;19940;-75
2022/05/12 03:21:31;;;;;;;;;;;;;;;;;;5013318;28;20070;-75
2022/05/12 03:23:56;;;;;;;;;;;;;;;;;;5014639;28;19917;-75
2022/05/12 03:26:22;;;;;;;;;;;;;;;;;;5014767;28;20310;-75
2022/05/12 03:28:47;;;;;;;;;;;;;;;;;;5013385;28;19923;-76
2022/05/12 03:31:13;;;;;;;;;;;;;;;;;;5013588;28;19917;-75
2022/05/12 03:33:38;;;;;;;;;;;;;;;;;;4996620;28;19960;-75
2022/05/12 03:36:04;;;;;;;;;;;;;;;;;;5014717;28;19921;-75
2022/05/12 03:38:30;;;;;;;;;;;;;;;;;;5014613;28;19922;-75
2022/05/12 03:40:55;;;;;;;;;;;;;;;;;;5012822;28;20386;-75
2022/05/12 03:46:05;;;;;;;;;;;;;;;;;;5012169;28;19917;-76
2022/05/12 03:48:31;;;;;;;;;;;;;;;;;;5012215;28;19918;-75
2022/05/12 03:50:57;;;;;;;;;;;;;;;;;;4994652;28;20375;-75
2022/05/12 03:53:24;;;;;;;;;;;;;;;;;;5012119;28;19960;-75
2022/05/12 03:55:49;;;;;;;;;;;;;;;;;;5012058;28;19925;-75
2022/05/12 03:58:14;;;;;;;;;;;;;;;;;;4994038;28;19921;-75
2022/05/12 04:00:40;;;;;;;;;;;;;;;;;;4996004;28;19957;-75
2022/05/12 04:03:05;;;;;;;;;;;;;;;;;;4994241;28;19917;-75
2022/05/12 04:05:31;;;;;;;;;;;;;;;;;;4994330;28;19968;-75
2022/05/12 04:07:57;;;;;;;;;;;;;;;;;;4978352;28;19925;-75
2022/05/12 04:10:23;;;;;;;;;;;;;;;;;;4977900;28;19941;-75
2022/05/12 04:12:49;;;;;;;;;;;;;;;;;;5011956;28;19917;-75
2022/05/12 04:15:15;;;;;;;;;;;;;;;;;;4967757;28;20402;-75
2022/05/12 04:17:42;;;;;;;;;;;;;;;;;;4992650;28;19976;-75
2022/05/12 04:20:09;;;;;;;;;;;;;;;;;;4993236;28;20271;-75
2022/05/12 04:22:35;;;;;;;;;;;;;;;;;;4960978;28;20344;-75
2022/05/12 04:25:00;;;;;;;;;;;;;;;;;;4993259;28;19989;-75
2022/05/12 04:27:25;;;;;;;;;;;;;;;;;;4994504;28;19924;-75
2022/05/12 04:29:51;;;;;;;;;;;;;;;;;;4993283;28;19940;-75
2022/05/12 04:32:16;;;;;;;;;;;;;;;;;;4993182;28;20272;-75
2022/05/12 04:37:28;;;;;;;;;;;;;;;;;;4993232;28;20435;-75
2022/05/12 04:39:53;;;;;;;;;;;;;;;;;;4976995;28;19972;-75
2022/05/12 04:42:19;;;;;;;;;;;;;;;;;;4976934;28;19918;-75
2022/05/12 04:44:44;;;;;;;;;;;;;;;;;;4997122;28;20371;-74
2022/05/12 04:47:09;;;;;;;;;;;;;;;;;;4998320;28;19917;-75
2022/05/12 04:49:35;;;;;;;;;;;;;;;;;;4980844;28;20009;-75
2022/05/12 04:52:02;;;;;;;;;;;;;;;;;;4998137;28;19961;-75
2022/05/12 04:54:28;;;;;;;;;;;;;;;;;;4998207;28;19918;-74
2022/05/12 04:56:53;;;;;;;;;;;;;;;;;;4998350;28;19918;-75
2022/05/12 04:59:18;;;;;;;;;;;;;;;;;;4980427;28;19917;-75
2022/05/12 05:01:44;;;;;;;;;;;;;;;;;;4998113;28;19922;-75
2022/05/12 05:04:09;;;;;;;;;;;;;;;;;;4998078;28;19922;-75
2022/05/12 05:06:34;;;;;;;;;;;;;;;;;;4997979;28;19917;-75
2022/05/12 05:09:00;;;;;;;;;;;;;;;;;;4980521;28;19918;-75
2022/05/12 05:11:26;;;;;;;;;;;;;;;;;;4980708;28;20291;-75
2022/05/12 05:13:51;;;;;;;;;;;;;;;;;;4980488;28;19968;-75
2022/05/12 05:16:17;;;;;;;;;;;;;;;;;;5016215;28;19924;-74
2022/05/12 05:18:42;;;;;;;;;;;;;;;;;;5017344;28;19921;-75
2022/05/12 05:21:09;;;;;;;;;;;;;;;;;;4999875;28;19921;-75
2022/05/12 05:23:35;;;;;;;;;;;;;;;;;;4983561;28;19917;-75
2022/05/12 05:26:01;;;;;;;;;;;;;;;;;;5017277;28;19943;-75
2022/05/12 05:28:26;;;;;;;;;;;;;;;;;;5017341;28;20007;-75
2022/05/12 05:30:52;;;;;;;;;;;;;;;;;;5017190;28;19926;-75
2022/05/12 05:33:18;;;;;;;;;;;;;;;;;;4999529;28;20043;-75
2022/05/12 05:35:43;;;;;;;;;;;;;;;;;;5016724;28;19917;-75
2022/05/12 05:38:09;;;;;;;;;;;;;;;;;;4999066;28;20306;-75
2022/05/12 05:40:34;;;;;;;;;;;;;;;;;;5016390;28;19988;-74
2022/05/12 05:43:00;;;;;;;;;;;;;;;;;;4998089;28;20271;-75
2022/05/12 05:45:26;;;;;;;;;;;;;;;;;;5016612;28;19918;-75
2022/05/12 05:47:54;;;;;;;;;;;;;;;;;;5016798;28;19917;-75
2022/05/12 05:50:27;;;;;;;;;;;;;;;;;;5016309;28;19963;-75
2022/05/12 05:55:37;;;;;;;;;;;;;;;;;;5014150;28;19923;-75
2022/05/12 05:58:03;;;;;;;;;;;;;;;;;;4998645;28;19921;-75
2022/05/12 06:00:31;;;;;;;;;;;;;;;;;;5016066;28;19918;-75
2022/05/12 06:02:57;;;;;;;;;;;;;;;;;;5013901;28;19929;-74
2022/05/12 06:05:22;;;;;;;;;;;;;;;;;;4998680;28;19920;-75
2022/05/12 06:07:47;;;;;;;;;;;;;;;;;;4982293;28;19917;-75
2022/05/12 06:10:13;;;;;;;;;;;;;;;;;;5015070;28;19924;-75
2022/05/12 06:12:40;;;;;;;;;;;;;;;;;;5016423;28;20496;-75
2022/05/12 06:15:06;;;;;;;;;;;;;;;;;;4981443;28;19929;-75
2022/05/12 06:17:31;;;;;;;;;;;;;;;;;;4998630;28;19921;-75
2022/05/12 06:19:57;;;;;;;;;;;;;;;;;;5016170;28;19940;-75
2022/05/12 06:22:22;;;;;;;;;;;;;;;;;;5016202;28;20009;-75
2022/05/12 06:24:49;;;;;;;;;;;;;;;;;;4998305;28;19968;-75
2022/05/12 06:27:19;;;;;;;;;;;;;;;;;;5016078;28;19917;-75
2022/05/12 06:29:45;;;;;;;;;;;;;;;;;;5015712;28;20322;-75
2022/05/12 06:32:10;;;;;;;;;;;;;;;;;;5000159;28;19921;-78
2022/05/12 06:34:36;;;;;;;;;;;;;;;;;;5025927;28;19924;-79
2022/05/12 06:37:02;;;;;;;;;;;;;;;;;;5007943;28;19925;-80
2022/05/12 06:39:28;;;;;;;;;;;;;;;;;;5025231;28;19925;-78
2022/05/12 06:41:53;;;;;;;;;;;;;;;;;;5006310;28;19917;-78
2022/05/12 06:44:19;;;;;;;;;;;;;;;;;;4984903;28;19933;-78
2022/05/12 06:46:45;;;;;;;;;;;;;;;;;;5003803;28;20342;-80
2022/05/12 06:49:11;;;;;;;;;;;;;;;;;;5002953;28;20446;-76
2022/05/12 06:51:37;;;;;;;;;;;;;;;;;;5015184;28;19964;-76
2022/05/12 06:54:03;;;;;;;;;;;;;;;;;;4997362;28;19925;-76
2022/05/12 06:56:28;;;;;;;;;;;;;;;;;;5001147;28;20386;-77
2022/05/12 06:58:54;;;;;;;;;;;;;;;;;;4998811;28;19926;-77
2022/05/12 07:01:20;;;;;;;;;;;;;;;;;;5016066;28;19922;-76
2022/05/12 07:03:45;;;;;;;;;;;;;;;;;;4978842;28;19925;-77
2022/05/12 07:06:12;;;;;;;;;;;;;;;;;;4977728;28;19917;-76
2022/05/12 07:08:41;;;;;;;;;;;;;;;;;;4994877;28;19925;-80
2022/05/12 07:11:07;;;;;;;;;;;;;;;;;;4980723;28;20315;-78
2022/05/12 07:13:32;;;;;;;;;;;;;;;;;;4980543;28;20012;-78
2022/05/12 07:15:58;;;;;;;;;;;;;;;;;;4981761;28;19957;-77
2022/05/12 07:18:23;;;;;;;;;;;;;;;;;;4962901;28;19929;-78
2022/05/12 07:26:36;;;;;;;;;;;;;;;;;;4994048;28;19968;-75
2022/05/12 07:29:02;;;;;;;;;;;;;;;;;;4995119;28;19922;-75
2022/05/12 07:31:28;;;;;;;;;;;;;;;;;;5007964;28;19924;-76
2022/05/12 07:33:54;;;;;;;;;;;;;;;;;;4996793;28;20286;-76
2022/05/12 07:36:30;;;;;;;;;;;;;;;;;;5013152;28;19920;-76
2022/05/12 07:38:56;;;;;;;;;;;;;;;;;;5010674;28;19972;-76
2022/05/12 07:41:22;;;;;;;;;;;;;;;;;;4994298;28;19921;-76
2022/05/12 07:43:48;;;;;;;;;;;;;;;;;;4994850;28;19924;-76
2022/05/12 07:46:15;;;;;;;;;;;;;;;;;;5011252;28;19921;-76
2022/05/12 07:48:41;;;;;;;;;;;;;;;;;;4994833;28;19917;-76
2022/05/12 07:51:07;;;;;;;;;;;;;;;;;;4995125;28;19924;-76
2022/05/12 07:53:33;;;;;;;;;;;;;;;;;;5013394;28;20019;-75
2022/05/12 07:55:58;;;;;;;;;;;;;;;;;;5012985;28;20421;-76
2022/05/12 07:58:24;;;;;;;;;;;;;;;;;;4995945;28;19972;-76
2022/05/12 08:00:50;;;;;;;;;;;;;;;;;;5014571;28;20004;-76
2022/05/12 08:03:15;;;;;;;;;;;;;;;;;;4996697;28;19967;-76
2022/05/12 08:05:41;;;;;;;;;;;;;;;;;;4996138;28;19917;-76
2022/05/12 08:08:06;;;;;;;;;;;;;;;;;;5013847;28;20338;-76
2022/05/12 08:10:32;;;;;;;;;;;;;;;;;;4996557;28;19929;-75
2022/05/12 08:12:58;;;;;;;;;;;;;;;;;;4980583;28;20283;-76
2022/05/12 08:15:25;;;;;;;;;;;;;;;;;;4996667;28;19917;-76
2022/05/12 08:17:51;;;;;;;;;;;;;;;;;;4996489;28;19961;-76
2022/05/12 08:20:17;;;;;;;;;;;;;;;;;;5013464;28;20351;-76
2022/05/12 08:22:42;;;;;;;;;;;;;;;;;;4996493;28;19925;-76
2022/05/12 08:25:09;;;;;;;;;;;;;;;;;;4996543;28;20012;-76
2022/05/12 08:27:35;;;;;;;;;;;;;;;;;;5012718;28;19925;-76
2022/05/12 08:30:00;;;;;;;;;;;;;;;;;;4996446;28;19918;-76
2022/05/12 08:32:26;;;;;;;;;;;;;;;;;;4996571;28;19917;-76
2022/05/12 08:34:51;;;;;;;;;;;;;;;;;;4996363;28;19924;-76
2022/05/12 08:37:18;;;;;;;;;;;;;;;;;;5013859;28;19960;-76
2022/05/12 08:39:45;;;;;;;;;;;;;;;;;;4996602;28;19924;-76
2022/05/12 08:42:28;;;;;;;;;;;;;;;;;;5013712;28;19921;-76
2022/05/12 08:44:55;;;;;;;;;;;;;;;;;;5013687;28;19926;-76
2022/05/12 08:47:25;;;;;;;;;;;;;;;;;;4995841;28;19925;-76
2022/05/12 08:49:51;;;;;;;;;;;;;;;;;;4996117;28;19921;-76
2022/05/12 08:52:16;;;;;;;;;;;;;;;;;;5013719;28;19922;-76
2022/05/12 08:54:50;;;;;;;;;;;;;;;;;;5013949;28;20020;-76
2022/05/12 08:57:26;;;;;;;;;;;;;;;;;;5012382;28;19917;-76
2022/05/12 08:59:51;;;;;;;;;;;;;;;;;;4996149;28;19917;-76
2022/05/12 09:02:23;;;;;;;;;;;;;;;;;;5013532;28;19970;-76
2022/05/12 09:05:00;;;;;;;;;;;;;;;;;;4980021;28;19917;-76
2022/05/12 09:07:28;;;;;;;;;;;;;;;;;;4996025;28;20023;-76
2022/05/12 09:10:00;;;;;;;;;;;;;;;;;;5012480;28;19917;-76
2022/05/12 09:12:37;;;;;;;;;;;;;;;;;;5013929;28;20331;-76
2022/05/12 09:15:05;;;;;;;;;;;;;;;;;;4980073;28;19984;-76
2022/05/12 09:17:39;;;;;;;;;;;;;;;;;;5013535;28;20389;-76
2022/05/12 09:20:09;;;;;;;;;;;;;;;;;;5012411;28;19917;-76
2022/05/12 09:22:35;;;;;;;;;;;;;;;;;;4996053;28;19917;-76
2022/05/12 09:25:00;;;;;;;;;;;;;;;;;;4979840;28;20016;-76
2022/05/12 09:27:28;;;;;;;;;;;;;;;;;;4995938;28;19971;-76
2022/05/12 09:29:54;;;;;;;;;;;;;;;;;;4995851;28;19940;-76
2022/05/12 09:32:23;;;;;;;;;;;;;;;;;;4999214;28;19921;-76
2022/05/12 09:35:07;;;;;;;;;;;;;;;;;;4999492;28;20020;-76
2022/05/12 09:37:33;;;;;;;;;;;;;;;;;;5017071;28;19986;-76
2022/05/12 09:40:19;;;;;;;;;;;;;;;;;;5015814;28;20324;-76
2022/05/12 09:42:47;;;;;;;;;;;;;;;;;;4999462;28;19918;-76
2022/05/12 09:45:15;;;;;;;;;;;;;;;;;;4999347;28;20385;-76
2022/05/12 09:47:42;;;;;;;;;;;;;;;;;;4999448;28;19917;-77
2022/05/12 09:50:17;;;;;;;;;;;;;;;;;;5017154;28;19972;-76
2022/05/12 09:52:43;;;;;;;;;;;;;;;;;;5016954;28;19921;-80
2022/05/12 09:55:24;;;;;;;;;;;;;;;;;;5019486;28;19921;-78
2022/05/12 09:57:52;;;;;;;;;;;;;;;;;;5021546;28;19945;-79
2022/05/12 10:00:30;;;;;;;;;;;;;;;;;;4988122;28;19967;-81
2022/05/12 10:08:29;;;;;;;;;;;;;;;;;;5008686;28;19940;-78
2022/05/12 10:11:06;;;;;;;;;;;;;;;;;;5024254;28;19930;-76
2022/05/12 10:13:52;;;;;;;;;;;;;;;;;;5020670;28;19917;-78
2022/05/12 10:16:20;;;;;;;;;;;;;;;;;;4965942;28;19922;-77
2022/05/12 10:18:47;;;;;;;;;;;;;;;;;;4995995;28;19929;-77
2022/05/12 10:21:31;;;;;;;;;;;;;;;;;;4998567;28;19918;-77
2022/05/12 10:24:15;;;;;;;;;;;;;;;;;;4969901;28;19948;-76
2022/05/12 10:26:48;;;;;;;;;;;;;;;;;;4980647;28;19917;-76
2022/05/12 10:29:22;;;;;;;;;;;;;;;;;;5005923;28;19917;-79
2022/05/12 10:32:06;;;;;;;;;;;;;;;;;;4987984;28;20363;-76
2022/05/12 10:34:38;;;;;;;;;;;;;;;;;;4991939;28;19917;-78
2022/05/12 10:37:22;;;;;;;;;;;;;;;;;;4986466;28;19928;-77
2022/05/12 10:39:51;;;;;;;;;;;;;;;;;;5018783;28;19921;-78
2022/05/12 10:42:36;;;;;;;;;;;;;;;;;;5002294;28;19925;-80
2022/05/12 10:45:07;;;;;;;;;;;;;;;;;;4987962;28;19918;-78
2022/05/12 10:48:02;;;;;;;;;;;;;;;;;;5003624;28;19925;-79
2022/05/12 10:50:34;;;;;;;;;;;;;;;;;;4971721;28;19921;-77
2022/05/12 10:53:06;;;;;;;;;;;;;;;;;;5031648;28;19921;-81
2022/05/12 10:55:50;;;;;;;;;;;;;;;;;;5020184;28;19924;-81
2022/05/12 10:58:38;;;;;;;;;;;;;;;;;;5007214;28;19952;-82
2022/05/12 11:01:05;;;;;;;;;;;;;;;;;;5010700;28;20363;-82
2022/05/12 11:03:34;;;;;;;;;;;;;;;;;;5025680;28;19943;-81
2022/05/12 11:06:01;;;;;;;;;;;;;;;;;;5003775;28;19924;-80
2022/05/12 11:08:33;;;;;;;;;;;;;;;;;;5004466;28;19921;-79
2022/05/12 11:11:00;;;;;;;;;;;;;;;;;;5023828;28;19944;-82
2022/05/12 11:13:45;;;;;;;;;;;;;;;;;;5020913;28;19914;-79
2022/05/12 11:16:14;;;;;;;;;;;;;;;;;;5006945;28;19909;-80
2022/05/12 11:18:51;;;;;;;;;;;;;;;;;;5011136;28;19929;-80
2022/05/12 11:21:25;;;;;;;;;;;;;;;;;;5028729;28;19918;-80
2022/05/12 11:24:21;;;;;;;;;;;;;;;;;;5012761;28;19921;-82
2022/05/12 11:26:50;;;;;;;;;;;;;;;;;;4988919;28;19940;-77
2022/05/12 11:32:04;;;;;;;;;;;;;;;;;;5026757;28;19917;-77
2022/05/12 11:34:30;;;;;;;;;;;;;;;;;;5037726;28;20289;-77
2022/05/12 11:36:55;;;;;;;;;;;;;;;;;;5032907;28;20011;-76
2022/05/12 11:39:50;;;;;;;;;;;;;;;;;;5035507;28;19925;-76
2022/05/12 11:44:23;;;;;;;;;;;;;;;;;;5010756;28;19917;-77
2022/05/12 11:45:32;;;;;;;;;;;;;;;;;;5015743;28;19917;-77
2022/05/12 11:48:16;;;;;;;;;;;;;;;;;;5014219;28;19928;-77
2022/05/12 11:50:50;;;;;;;;;;;;;;;;;;4997523;28;19918;-77
2022/05/12 11:53:18;;;;;;;;;;;;;;;;;;5011664;28;19925;-77
2022/05/12 11:56:12;;;;;;;;;;;;;;;;;;4997260;28;19972;-77
2022/05/12 11:58:38;;;;;;;;;;;;;;;;;;4967845;28;20024;-77
2022/05/12 12:01:07;;;;;;;;;;;;;;;;;;5012547;28;20205;-77
2022/05/12 12:03:32;;;;;;;;;;;;;;;;;;4996952;28;19977;-77
2022/05/12 12:06:07;;;;;;;;;;;;;;;;;;5012718;28;19960;-77
2022/05/12 12:08:32;;;;;;;;;;;;;;;;;;4995566;28;20371;-76
2022/05/12 12:11:19;;;;;;;;;;;;;;;;;;5010965;28;19917;-76
2022/05/12 12:13:45;;;;;;;;;;;;;;;;;;5004257;28;19995;-76
2022/05/12 12:16:13;;;;;;;;;;;;;;;;;;5014249;28;19921;-76
2022/05/12 12:18:38;;;;;;;;;;;;;;;;;;4996501;28;20363;-76
2022/05/12 12:21:22;;;;;;;;;;;;;;;;;;5013493;28;19918;-76
2022/05/12 12:23:58;;;;;;;;;;;;;;;;;;4996115;28;19943;-76
2022/05/12 12:26:23;;;;;;;;;;;;;;;;;;4996246;28;19924;-76
2022/05/12 12:28:51;;;;;;;;;;;;;;;;;;5012429;28;19917;-76
2022/05/12 12:31:37;;;;;;;;;;;;;;;;;;4995890;28;20056;-76
2022/05/12 12:34:22;;;;;;;;;;;;;;;;;;5013788;28;20299;-75
2022/05/12 12:36:48;;;;;;;;;;;;;;;;;;5029236;28;19917;-76
2022/05/12 12:39:33;;;;;;;;;;;;;;;;;;5013751;28;19967;-76
2022/05/12 12:42:22;;;;;;;;;;;;;;;;;;5012005;28;19924;-75
2022/05/12 12:44:52;;;;;;;;;;;;;;;;;;4985836;28;19917;-76
2022/05/12 12:47:35;;;;;;;;;;;;;;;;;;5013809;28;19917;-76
2022/05/12 12:50:10;;;;;;;;;;;;;;;;;;4996341;28;19921;-76
2022/05/12 12:52:39;;;;;;;;;;;;;;;;;;5013897;28;19921;-75
2022/05/12 12:57:58;;;;;;;;;;;;;;;;;;4996095;28;19960;-76
2022/05/12 13:00:36;;;;;;;;;;;;;;;;;;5013552;28;19925;-76
2022/05/12 13:03:07;;;;;;;;;;;;;;;;;;5013923;28;19964;-76
2022/05/12 13:05:33;;;;;;;;;;;;;;;;;;5013853;28;19921;-75
2022/05/12 13:08:03;;;;;;;;;;;;;;;;;;5016454;28;19961;-76
2022/05/12 13:10:31;;;;;;;;;;;;;;;;;;5020135;28;19918;-77
2022/05/12 13:13:04;;;;;;;;;;;;;;;;;;5004764;28;20008;-78
2022/05/12 13:15:32;;;;;;;;;;;;;;;;;;5002160;28;19917;-77
2022/05/12 13:17:59;;;;;;;;;;;;;;;;;;5002581;28;19922;-77
2022/05/12 13:20:28;;;;;;;;;;;;;;;;;;5020100;28;19918;-77
2022/05/12 13:22:59;;;;;;;;;;;;;;;;;;4989743;28;19917;-78
2022/05/12 13:25:27;;;;;;;;;;;;;;;;;;5002753;28;19918;-77
2022/05/12 13:27:52;;;;;;;;;;;;;;;;;;5017350;28;19924;-76
2022/05/12 13:30:20;;;;;;;;;;;;;;;;;;4999177;28;19921;-76
2022/05/12 13:32:48;;;;;;;;;;;;;;;;;;4998890;28;19918;-76
2022/05/12 13:35:20;;;;;;;;;;;;;;;;;;5016718;28;19939;-76
2022/05/12 13:37:47;;;;;;;;;;;;;;;;;;5015448;28;19988;-76
2022/05/12 13:40:33;;;;;;;;;;;;;;;;;;4998514;28;20295;-76
2022/05/12 13:42:58;;;;;;;;;;;;;;;;;;4998781;28;20338;-76
2022/05/12 13:45:26;;;;;;;;;;;;;;;;;;5014690;28;20004;-76
2022/05/12 13:47:53;;;;;;;;;;;;;;;;;;5015532;28;20441;-75
2022/05/12 13:50:19;;;;;;;;;;;;;;;;;;4999238;28;20024;-76
2022/05/12 13:52:46;;;;;;;;;;;;;;;;;;5016116;28;19972;-76
2022/05/12 13:55:18;;;;;;;;;;;;;;;;;;4999218;28;19949;-76
2022/05/12 13:57:46;;;;;;;;;;;;;;;;;;5015123;28;19921;-75
2022/05/12 14:00:14;;;;;;;;;;;;;;;;;;5014452;28;19972;-76
2022/05/12 14:02:46;;;;;;;;;;;;;;;;;;4996113;28;19928;-76
2022/05/12 14:05:23;;;;;;;;;;;;;;;;;;4996273;28;20306;-76
2022/05/12 14:08:07;;;;;;;;;;;;;;;;;;5013905;28;19976;-76
2022/05/12 14:10:35;;;;;;;;;;;;;;;;;;5013773;28;19918;-75
2022/05/12 14:21:20;;;;;;;;;;;;;;;;;;4998541;28;20426;-76
2022/05/12 14:23:45;;;;;;;;;;;;;;;;;;4998570;28;19918;-76
2022/05/12 14:26:11;;;;;;;;;;;;;;;;;;4982049;28;20000;-75
2022/05/12 14:28:36;;;;;;;;;;;;;;;;;;5015899;28;19964;-76
2022/05/12 14:31:02;;;;;;;;;;;;;;;;;;4998249;28;19940;-76
2022/05/12 14:33:30;;;;;;;;;;;;;;;;;;5028235;28;19923;-75
2022/05/12 14:35:56;;;;;;;;;;;;;;;;;;5001567;28;20262;-75
2022/05/12 14:38:22;;;;;;;;;;;;;;;;;;5001337;28;19921;-76
2022/05/12 14:40:47;;;;;;;;;;;;;;;;;;5017555;28;19956;-76
2022/05/12 14:43:13;;;;;;;;;;;;;;;;;;5017723;28;19964;-75
2022/05/12 14:45:38;;;;;;;;;;;;;;;;;;5001327;28;19924;-75
2022/05/12 14:48:05;;;;;;;;;;;;;;;;;;5015490;28;19914;-75
2022/05/12 14:50:31;;;;;;;;;;;;;;;;;;5015589;28;19921;-76
2022/05/12 14:52:56;;;;;;;;;;;;;;;;;;5006375;28;20372;-75
2022/05/12 14:55:23;;;;;;;;;;;;;;;;;;4978561;28;20248;-76
2022/05/12 14:57:48;;;;;;;;;;;;;;;;;;4995705;28;20440;-75
2022/05/12 15:00:14;;;;;;;;;;;;;;;;;;4995476;28;20023;-76
2022/05/12 15:02:41;;;;;;;;;;;;;;;;;;4961845;28;20012;-75
2022/05/12 15:05:08;;;;;;;;;;;;;;;;;;4995475;28;19918;-75
2022/05/12 15:07:34;;;;;;;;;;;;;;;;;;4994256;28;19924;-75
2022/05/12 15:09:59;;;;;;;;;;;;;;;;;;4978349;28;19918;-75
2022/05/12 15:12:25;;;;;;;;;;;;;;;;;;4995406;28;19925;-75
2022/05/12 15:14:50;;;;;;;;;;;;;;;;;;4977879;28;19928;-75
2022/05/12 15:17:18;;;;;;;;;;;;;;;;;;4995136;28;20368;-75
2022/05/12 15:19:45;;;;;;;;;;;;;;;;;;4995367;28;19922;-75
2022/05/12 15:22:10;;;;;;;;;;;;;;;;;;4977599;28;19929;-76
2022/05/12 15:24:36;;;;;;;;;;;;;;;;;;4995541;28;19917;-75
2022/05/12 15:27:04;;;;;;;;;;;;;;;;;;4977937;28;19917;-75
2022/05/12 15:29:30;;;;;;;;;;;;;;;;;;5004361;28;19925;-75
2022/05/12 15:31:56;;;;;;;;;;;;;;;;;;4996353;28;19918;-75
2022/05/12 15:34:22;;;;;;;;;;;;;;;;;;4996788;28;19924;-75
2022/05/12 15:36:50;;;;;;;;;;;;;;;;;;4996689;28;19917;-76
2022/05/12 15:39:16;;;;;;;;;;;;;;;;;;5014764;28;20298;-75
2022/05/12 15:41:45;;;;;;;;;;;;;;;;;;5014229;28;20008;-76
2022/05/12 15:44:11;;;;;;;;;;;;;;;;;;4996598;28;19968;-75
2022/05/12 15:46:37;;;;;;;;;;;;;;;;;;5014393;28;19917;-75
2022/05/12 15:49:03;;;;;;;;;;;;;;;;;;5013269;28;20331;-75
2022/05/12 15:51:30;;;;;;;;;;;;;;;;;;5013316;28;19960;-76
2022/05/12 15:53:55;;;;;;;;;;;;;;;;;;5014281;28;19918;-76
2022/05/12 15:56:20;;;;;;;;;;;;;;;;;;4996702;28;19921;-76
2022/05/12 15:58:46;;;;;;;;;;;;;;;;;;4980299;28;19921;-75
2022/05/12 16:01:13;;;;;;;;;;;;;;;;;;5013840;28;20291;-76
2022/05/12 16:03:38;;;;;;;;;;;;;;;;;;4996641;28;19917;-76
2022/05/12 16:06:05;;;;;;;;;;;;;;;;;;4996702;28;19924;-75
2022/05/12 16:08:31;;;;;;;;;;;;;;;;;;4980266;28;19992;-75
2022/05/12 16:10:57;;;;;;;;;;;;;;;;;;4980628;28;19918;-76
2022/05/12 16:13:31;;;;;;;;;;;;;;;;;;4980477;28;20108;-75
2022/05/12 16:15:57;;;;;;;;;;;;;;;;;;4996738;28;20464;-75
2022/05/12 16:18:24;;;;;;;;;;;;;;;;;;4980223;28;20375;-76
2022/05/12 16:20:49;;;;;;;;;;;;;;;;;;4996533;28;19918;-75
2022/05/12 16:23:15;;;;;;;;;;;;;;;;;;4996653;28;19918;-75
2022/05/12 16:25:49;;;;;;;;;;;;;;;;;;5013027;28;19953;-75
2022/05/12 16:28:19;;;;;;;;;;;;;;;;;;4996488;28;20000;-75
2022/05/12 16:30:45;;;;;;;;;;;;;;;;;;4995807;28;19921;-75
2022/05/12 16:33:11;;;;;;;;;;;;;;;;;;4996693;28;20519;-75
2022/05/12 16:35:38;;;;;;;;;;;;;;;;;;4996247;28;19993;-75
2022/05/12 16:38:04;;;;;;;;;;;;;;;;;;5013785;28;19922;-75
2022/05/12 16:40:30;;;;;;;;;;;;;;;;;;4981494;28;19924;-75
2022/05/12 16:42:55;;;;;;;;;;;;;;;;;;4984463;28;19924;-75
2022/05/12 16:45:21;;;;;;;;;;;;;;;;;;5000484;28;20414;-75
2022/05/12 16:47:46;;;;;;;;;;;;;;;;;;5000219;28;19918;-76
2022/05/12 16:50:12;;;;;;;;;;;;;;;;;;5017708;28;20275;-76
2022/05/12 16:52:38;;;;;;;;;;;;;;;;;;5017836;28;20012;-75
2022/05/12 16:55:04;;;;;;;;;;;;;;;;;;5017849;28;20015;-75
2022/05/12 16:57:29;;;;;;;;;;;;;;;;;;5016425;28;20012;-75
2022/05/12 16:59:59;;;;;;;;;;;;;;;;;;4999984;28;20012;-75
2022/05/12 17:02:26;;;;;;;;;;;;;;;;;;4983436;28;19929;-75
2022/05/12 17:04:55;;;;;;;;;;;;;;;;;;5017679;28;19925;-75
2022/05/12 17:07:20;;;;;;;;;;;;;;;;;;5016460;28;19959;-75
2022/05/12 17:09:47;;;;;;;;;;;;;;;;;;5000004;28;19933;-75
2022/05/12 17:12:12;;;;;;;;;;;;;;;;;;4999982;28;20426;-75
2022/05/12 17:14:38;;;;;;;;;;;;;;;;;;5017500;28;19917;-75
2022/05/12 17:17:04;;;;;;;;;;;;;;;;;;5016925;28;20363;-75
2022/05/12 17:19:30;;;;;;;;;;;;;;;;;;5000523;28;19921;-77
2022/05/12 17:21:56;;;;;;;;;;;;;;;;;;5000519;28;19921;-75
2022/05/12 17:24:21;;;;;;;;;;;;;;;;;;4985163;28;19940;-76
2022/05/12 17:26:49;;;;;;;;;;;;;;;;;;4983260;28;21260;-76